createdAt,value
2022-09-02T00:01:29.450Z,101722.91
2022-09-02T00:04:00.311Z,101725.63
2022-09-02T00:06:31.391Z,101715.53
2022-09-02T00:09:01.033Z,101718.00
2022-09-02T00:11:32.747Z,101718.81
2022-09-02T00:14:03.995Z,101719.38
2022-09-02T00:16:33.231Z,101716.38
2022-09-02T00:19:03.108Z,101709.28
2022-09-02T00:21:32.931Z,101709.56
2022-09-02T00:24:04.135Z,101703.03
2022-09-02T00:26:32.281Z,101713.38
2022-09-02T00:28:59.969Z,101705.22
2022-09-02T00:31:29.838Z,101711.22
2022-09-02T00:33:58.007Z,101705.22
2022-09-02T00:36:25.777Z,101707.13
2022-09-02T00:38:53.915Z,101703.56
2022-09-02T00:41:26.127Z,101706.03
2022-09-02T00:43:56.197Z,101703.06
2022-09-02T00:46:25.664Z,101700.31
2022-09-02T00:48:57.485Z,101703.56
2022-09-02T00:51:27.377Z,101706.28
2022-09-02T00:53:55.463Z,101701.38
2022-09-02T00:56:27.929Z,101702.47
2022-09-02T00:58:56.372Z,101704.66
2022-09-02T01:01:24.721Z,101696.50
2022-09-02T01:03:52.859Z,101700.31
2022-09-02T01:06:24.331Z,101703.56
2022-09-02T01:08:57.007Z,101702.72
2022-09-02T01:11:32.160Z,101702.72
2022-09-02T01:14:01.703Z,101702.47
2022-09-02T01:16:33.238Z,101701.69
2022-09-02T01:19:03.707Z,101699.50
2022-09-02T01:21:31.512Z,101695.41
2022-09-02T01:24:00.743Z,101697.03
2022-09-02T01:26:31.025Z,101698.41
2022-09-02T01:28:58.859Z,101695.16
2022-09-02T01:31:26.592Z,101692.41
2022-09-02T01:33:55.035Z,101690.50
2022-09-02T01:36:22.755Z,101692.69
2022-09-02T01:38:50.897Z,101690.78
2022-09-02T01:41:20.013Z,101687.50
2022-09-02T01:43:47.736Z,101687.22
2022-09-02T01:46:15.669Z,101687.50
2022-09-02T01:48:43.492Z,101687.78
2022-09-02T01:51:17.446Z,101687.78
2022-09-02T01:53:45.441Z,101681.78
2022-09-02T01:56:13.398Z,101680.44
2022-09-02T01:58:42.732Z,101683.16
2022-09-02T02:01:11.185Z,101685.88
2022-09-02T02:03:40.719Z,101684.25
2022-09-02T02:06:12.803Z,101679.59
2022-09-02T02:08:40.875Z,101673.34
2022-09-02T02:11:09.182Z,101667.59
2022-09-02T02:13:37.508Z,101667.06
2022-09-02T02:16:06.822Z,101673.06
2022-09-02T02:18:34.575Z,101672.53
2022-09-02T02:21:04.138Z,101664.09
2022-09-02T02:23:32.056Z,101660.53
2022-09-02T02:25:59.995Z,101662.72
2022-09-02T02:28:27.810Z,101660.28
2022-09-02T02:30:55.851Z,101662.16
2022-09-02T02:33:26.071Z,101656.19
2022-09-02T02:36:04.979Z,101661.34
2022-09-02T02:38:32.809Z,101655.25
2022-09-02T02:41:01.907Z,101661.81
2022-09-02T02:43:29.668Z,101662.66
2022-09-02T02:45:57.412Z,101662.38
2022-09-02T02:48:26.608Z,101655.00
2022-09-02T02:50:54.348Z,101656.66
2022-09-02T02:53:22.308Z,101652.31
2022-09-02T02:55:51.381Z,101650.00
2022-09-02T02:58:19.453Z,101650.31
2022-09-02T03:00:47.168Z,101640.88
2022-09-02T03:03:19.265Z,101645.94
2022-09-02T03:05:49.017Z,101643.59
2022-09-02T03:08:18.920Z,101646.28
2022-09-02T03:10:47.449Z,101635.66
2022-09-02T03:13:15.450Z,101643.56
2022-09-02T03:15:43.500Z,101652.50
2022-09-02T03:18:11.300Z,101647.09
2022-09-02T03:20:40.429Z,101649.03
2022-09-02T03:23:10.164Z,101643.25
2022-09-02T03:25:37.887Z,101635.59
2022-09-02T03:28:06.281Z,101646.47
2022-09-02T03:30:34.511Z,101637.16
2022-09-02T03:33:05.736Z,101635.00
2022-09-02T03:35:35.491Z,101640.16
2022-09-02T03:38:03.209Z,101639.59
2022-09-02T03:40:32.456Z,101631.41
2022-09-02T03:43:00.789Z,101631.50
2022-09-02T03:45:29.087Z,101635.56
2022-09-02T03:47:57.636Z,101631.72
2022-09-02T03:50:30.158Z,101632.50
2022-09-02T03:52:58.956Z,101627.41
2022-09-02T03:55:27.412Z,101630.94
2022-09-02T03:57:56.800Z,101629.56
2022-09-02T04:00:29.396Z,101626.31
2022-09-02T04:02:57.517Z,101630.41
2022-09-02T04:05:25.835Z,101626.06
2022-09-02T04:07:53.555Z,101624.91
2022-09-02T04:10:22.125Z,101621.88
2022-09-02T04:12:51.113Z,101624.56
2022-09-02T04:15:21.021Z,101627.28
2022-09-02T04:17:48.727Z,101618.06
2022-09-02T04:20:17.954Z,101625.53
2022-09-02T04:22:45.793Z,101628.00
2022-09-02T04:25:14.577Z,101627.81
2022-09-02T04:27:42.367Z,101630.44
2022-09-02T04:30:10.972Z,101626.91
2022-09-02T04:32:41.028Z,101626.91
2022-09-02T04:35:09.202Z,101631.28
2022-09-02T04:37:36.920Z,101636.72
2022-09-02T04:40:05.454Z,101630.25
2022-09-02T04:42:34.045Z,101629.22
2022-09-02T04:45:03.479Z,101635.63
2022-09-02T04:47:31.203Z,101628.00
2022-09-02T04:50:00.335Z,101632.03
2022-09-02T04:52:28.061Z,101639.28
2022-09-02T04:54:55.963Z,101645.28
2022-09-02T04:57:23.781Z,101643.84
2022-09-02T04:59:51.487Z,101637.66
2022-09-02T05:02:20.260Z,101640.50
2022-09-02T05:04:48.077Z,101637.09
2022-09-02T05:07:17.132Z,101641.09
2022-09-02T05:09:45.303Z,101645.19
2022-09-02T05:12:14.533Z,101641.59
2022-09-02T05:14:43.519Z,101653.31
2022-09-02T05:17:11.196Z,101645.72
2022-09-02T05:19:38.893Z,101645.69
2022-09-02T05:22:06.617Z,101645.44
2022-09-02T05:24:35.692Z,101632.28
2022-09-02T05:27:05.685Z,101638.25
2022-09-02T05:29:33.413Z,101649.94
2022-09-02T05:32:03.409Z,101653.75
2022-09-02T05:34:33.275Z,101643.19
2022-09-02T05:37:00.997Z,101655.16
2022-09-02T05:39:28.747Z,101647.91
2022-09-02T05:41:57.908Z,101652.81
2022-09-02T05:44:25.799Z,101650.91
2022-09-02T05:46:54.177Z,101652.31
2022-09-02T05:49:22.575Z,101644.13
2022-09-02T05:51:52.916Z,101652.81
2022-09-02T05:54:22.656Z,101642.84
2022-09-02T05:56:53.658Z,101649.81
2022-09-02T05:59:23.367Z,101647.63
2022-09-02T06:01:51.577Z,101645.25
2022-09-02T06:04:19.339Z,101638.34
2022-09-02T06:06:47.146Z,101635.72
2022-09-02T06:09:16.704Z,101632.03
2022-09-02T06:11:49.135Z,101631.72
2022-09-02T06:14:18.748Z,101641.63
2022-09-02T06:16:48.123Z,101633.41
2022-09-02T06:19:19.667Z,101637.00
2022-09-02T06:21:48.916Z,101634.41
2022-09-02T06:24:16.878Z,101636.16
2022-09-02T06:26:44.959Z,101635.00
2022-09-02T06:29:12.851Z,101635.78
2022-09-02T06:31:42.515Z,101642.88
2022-09-02T06:34:14.929Z,101641.66
2022-09-02T06:36:44.248Z,101636.63
2022-09-02T06:39:14.105Z,101637.66
2022-09-02T06:41:43.494Z,101639.47
2022-09-02T06:44:15.156Z,101634.84
2022-09-02T06:46:46.242Z,101640.97
2022-09-02T06:49:16.787Z,101627.13
2022-09-02T06:51:46.392Z,101629.34
2022-09-02T06:54:16.329Z,101632.59
2022-09-02T06:56:49.254Z,101629.97
2022-09-02T06:59:17.904Z,101635.38
2022-09-02T07:01:46.138Z,101633.84
2022-09-02T07:04:33.917Z,101633.44
2022-09-02T07:07:03.424Z,101635.53
2022-09-02T07:09:31.893Z,101640.13
2022-09-02T07:12:05.103Z,101634.38
2022-09-02T07:14:36.857Z,101631.13
2022-09-02T07:17:04.705Z,101634.41
2022-09-02T07:19:33.836Z,101631.31
2022-09-02T07:22:03.007Z,101633.06
2022-09-02T07:24:30.836Z,101627.16
2022-09-02T07:26:58.603Z,101631.41
2022-09-02T07:29:26.378Z,101637.50
2022-09-02T07:31:54.121Z,101629.34
2022-09-02T07:34:22.240Z,101628.53
2022-09-02T07:36:52.504Z,101625.25
2022-09-02T07:39:20.739Z,101628.81
2022-09-02T07:41:51.120Z,101623.38
2022-09-02T07:44:20.320Z,101627.81
2022-09-02T07:46:48.241Z,101634.13
2022-09-02T07:49:18.903Z,101616.94
2022-09-02T07:51:51.940Z,101616.38
2022-09-02T07:54:21.965Z,101613.34
2022-09-02T07:56:50.084Z,101617.44
2022-09-02T07:59:18.416Z,101614.63
2022-09-02T08:01:48.162Z,101619.53
2022-09-02T08:04:16.217Z,101617.59
2022-09-02T08:06:43.979Z,101626.47
2022-09-02T08:09:13.056Z,101618.91
2022-09-02T08:11:42.338Z,101618.00
2022-09-02T08:14:12.268Z,101606.44
2022-09-02T08:16:40.303Z,101614.94
2022-09-02T08:19:08.792Z,101613.19
2022-09-02T08:21:36.489Z,101603.41
2022-09-02T08:24:04.801Z,101600.59
2022-09-02T08:26:36.987Z,101608.69
2022-09-02T08:29:05.527Z,101600.75
2022-09-02T08:31:34.039Z,101601.97
2022-09-02T08:34:02.219Z,101592.22
2022-09-02T08:36:30.000Z,101601.97
2022-09-02T08:38:57.742Z,101590.41
2022-09-02T08:41:27.348Z,101598.84
2022-09-02T08:43:59.910Z,101588.47
2022-09-02T08:46:29.224Z,101592.38
2022-09-02T08:48:59.348Z,101601.75
2022-09-02T08:51:35.966Z,101593.72
2022-09-02T08:54:06.913Z,101601.28
2022-09-02T08:56:36.154Z,101600.22
2022-09-02T08:59:07.050Z,101600.59
2022-09-02T09:01:43.518Z,101597.78
2022-09-02T09:04:18.383Z,101590.75
2022-09-02T09:06:56.535Z,101593.97
2022-09-02T09:09:29.477Z,101580.66
2022-09-02T09:12:05.100Z,101579.91
2022-09-02T09:14:38.519Z,101571.09
2022-09-02T09:17:11.228Z,101574.06
2022-09-02T09:19:47.371Z,101575.75
2022-09-02T09:22:19.410Z,101574.66
2022-09-02T09:24:50.667Z,101563.53
2022-09-02T09:27:19.841Z,101570.34
2022-09-02T09:29:51.203Z,101573.38
2022-09-02T09:32:23.988Z,101566.97
2022-09-02T09:35:01.666Z,101561.19
2022-09-02T09:37:36.529Z,101558.28
2022-09-02T09:40:24.637Z,101554.16
2022-09-02T09:42:57.033Z,101558.16
2022-09-02T09:45:37.271Z,101550.97
2022-09-02T09:48:16.364Z,101547.03
2022-09-02T09:50:44.668Z,101558.38
2022-09-02T09:53:17.329Z,101556.44
2022-09-02T09:55:53.671Z,101551.72
2022-09-02T09:58:22.196Z,101538.81
2022-09-02T10:01:00.556Z,101542.03
2022-09-02T10:03:33.130Z,101538.69
2022-09-02T10:06:18.841Z,101546.84
2022-09-02T10:08:53.411Z,101531.00
2022-09-02T10:11:24.260Z,101540.56
2022-09-02T10:13:52.010Z,101531.19
2022-09-02T10:16:48.050Z,101536.72
2022-09-02T10:19:22.866Z,101529.03
2022-09-02T10:22:04.284Z,101514.69
2022-09-02T10:24:45.061Z,101516.22
2022-09-02T10:27:16.784Z,101519.66
2022-09-02T10:29:53.029Z,101504.94
2022-09-02T10:32:30.157Z,101505.28
2022-09-02T10:35:08.380Z,101514.66
2022-09-02T10:37:41.708Z,101500.00
2022-09-02T10:40:11.859Z,101501.50
2022-09-02T10:42:45.157Z,101502.13
2022-09-02T10:45:17.706Z,101502.56
2022-09-02T10:47:55.130Z,101491.91
2022-09-02T10:50:28.414Z,101491.09
2022-09-02T10:53:13.325Z,101492.59
2022-09-02T10:55:46.971Z,101483.19
2022-09-02T10:58:20.435Z,101489.34
2022-09-02T11:00:51.755Z,101480.84
2022-09-02T11:03:24.864Z,101481.44
2022-09-02T11:05:53.862Z,101477.66
2022-09-02T11:08:30.888Z,101486.81
2022-09-02T11:11:04.615Z,101480.78
2022-09-02T11:13:38.807Z,101483.84
2022-09-02T11:16:11.456Z,101483.34
2022-09-02T11:18:45.291Z,101474.00
2022-09-02T11:21:26.653Z,101467.31
2022-09-02T11:24:03.568Z,101459.56
2022-09-02T11:26:37.184Z,101455.56
2022-09-02T11:29:11.364Z,101457.03
2022-09-02T11:31:40.202Z,101472.06
2022-09-02T11:34:18.379Z,101461.56
2022-09-02T11:36:46.470Z,101461.72
2022-09-02T11:39:30.646Z,101451.78
2022-09-02T11:42:15.632Z,101454.72
2022-09-02T11:45:03.559Z,101455.94
2022-09-02T11:47:45.574Z,101453.44
2022-09-02T11:50:37.329Z,101453.50
2022-09-02T11:53:19.240Z,101445.81
2022-09-02T11:55:51.390Z,101453.03
2022-09-02T11:58:33.218Z,101441.94
2022-09-02T12:01:25.578Z,101438.41
2022-09-02T12:04:55.414Z,101445.56
2022-09-02T12:07:19.689Z,101443.75
2022-09-02T12:09:49.773Z,101429.75
2022-09-02T12:13:00.292Z,101428.13
2022-09-02T12:15:29.680Z,101420.81
2022-09-02T12:18:32.795Z,101418.25
2022-09-02T12:21:15.935Z,101419.84
2022-09-02T12:24:20.264Z,101414.59
2022-09-02T12:27:28.983Z,101411.25
2022-09-02T12:29:57.675Z,101407.31
2022-09-02T12:33:03.153Z,101407.91
2022-09-02T12:35:34.852Z,101402.91
2022-09-02T12:38:34.350Z,101408.28
2022-09-02T12:41:13.199Z,101403.91
2022-09-02T12:43:51.295Z,101406.44
2022-09-02T12:46:22.841Z,101405.53
2022-09-02T12:48:59.721Z,101402.16
2022-09-02T12:51:52.963Z,101394.91
2022-09-02T12:54:25.768Z,101391.94
2022-09-02T12:56:53.781Z,101395.19
2022-09-02T12:59:30.736Z,101391.53
2022-09-02T13:02:07.269Z,101390.69
2022-09-02T13:04:39.975Z,101387.69
2022-09-02T13:07:26.416Z,101386.38
2022-09-02T13:10:08.935Z,101391.88
2022-09-02T13:12:53.289Z,101383.03
2022-09-02T13:15:31.554Z,101374.69
2022-09-02T13:18:37.672Z,101373.19
2022-09-02T13:21:23.048Z,101370.09
2022-09-02T13:24:09.423Z,101362.47
2022-09-02T13:26:49.591Z,101361.88
2022-09-02T13:30:04.609Z,101367.38
2022-09-02T13:32:34.957Z,101373.16
2022-09-02T13:35:05.754Z,101364.50
2022-09-02T13:37:36.681Z,101361.88
2022-09-02T13:40:08.203Z,101355.28
2022-09-02T13:42:35.906Z,101357.22
2022-09-02T13:45:13.480Z,101362.00
2022-09-02T13:47:47.016Z,101353.47
2022-09-02T13:50:17.017Z,101349.91
2022-09-02T13:53:34.424Z,101349.91
2022-09-02T13:55:34.299Z,101349.88
2022-09-02T13:58:04.582Z,101350.47
2022-09-02T14:00:34.964Z,101340.63
2022-09-02T14:03:06.380Z,101346.25
2022-09-02T14:05:36.564Z,101334.69
2022-09-02T14:08:06.867Z,101338.22
2022-09-02T14:10:36.128Z,101326.97
2022-09-02T14:13:04.933Z,101326.25
2022-09-02T14:15:34.233Z,101316.22
2022-09-02T14:18:11.872Z,101319.84
2022-09-02T14:20:57.695Z,101315.81
2022-09-02T14:23:26.332Z,101309.84
2022-09-02T14:25:55.706Z,101322.69
2022-09-02T14:28:25.036Z,101310.44
2022-09-02T14:30:58.929Z,101318.38
2022-09-02T14:33:38.963Z,101309.22
2022-09-02T14:36:08.552Z,101308.28
2022-09-02T14:38:38.543Z,101311.97
2022-09-02T14:41:12.065Z,101310.97
2022-09-02T14:43:45.063Z,101311.97
2022-09-02T14:46:28.317Z,101301.66
2022-09-02T14:49:01.003Z,101301.19
2022-09-02T14:51:35.621Z,101315.84
2022-09-02T14:54:05.741Z,101309.97
2022-09-02T14:56:51.061Z,101312.03
2022-09-02T14:59:19.282Z,101303.88
2022-09-02T15:01:49.010Z,101300.78
2022-09-02T15:04:19.301Z,101305.59
2022-09-02T15:06:47.955Z,101304.28
2022-09-02T15:09:16.783Z,101297.44
2022-09-02T15:11:46.743Z,101303.56
2022-09-02T15:14:14.759Z,101310.28
2022-09-02T15:16:42.648Z,101309.53
2022-09-02T15:19:10.349Z,101302.50
2022-09-02T15:21:40.284Z,101309.81
2022-09-02T15:24:08.232Z,101307.16
2022-09-02T15:26:35.934Z,101297.91
2022-09-02T15:29:03.936Z,101301.44
2022-09-02T15:31:31.955Z,101302.97
2022-09-02T15:33:59.901Z,101298.22
2022-09-02T15:36:27.674Z,101297.13
2022-09-02T15:38:56.722Z,101285.50
2022-09-02T15:41:27.346Z,101287.38
2022-09-02T15:43:55.308Z,101292.56
2022-09-02T15:46:26.325Z,101293.72
2022-09-02T15:48:56.865Z,101300.53
2022-09-02T15:51:28.427Z,101296.81
2022-09-02T15:53:58.639Z,101296.50
2022-09-02T15:56:28.676Z,101290.44
2022-09-02T15:58:58.487Z,101283.44
2022-09-02T16:01:27.295Z,101288.69
2022-09-02T16:03:55.795Z,101286.88
2022-09-02T16:06:23.582Z,101279.66
2022-09-02T16:08:51.431Z,101286.69
2022-09-02T16:11:20.585Z,101286.94
2022-09-02T16:13:48.607Z,101272.16
2022-09-02T16:16:17.207Z,101270.84
2022-09-02T16:18:45.837Z,101275.19
2022-09-02T16:21:13.868Z,101273.09
2022-09-02T16:23:41.564Z,101272.19
2022-09-02T16:26:16.531Z,101272.78
2022-09-02T16:28:46.836Z,101268.75
2022-09-02T16:31:18.066Z,101263.75
2022-09-02T16:33:46.201Z,101262.91
2022-09-02T16:36:13.871Z,101256.53
2022-09-02T16:38:41.568Z,101255.59
2022-09-02T16:41:23.141Z,101254.72
2022-09-02T16:43:52.312Z,101249.94
2022-09-02T16:46:20.103Z,101247.69
2022-09-02T16:48:48.953Z,101247.84
2022-09-02T16:51:17.095Z,101249.75
2022-09-02T16:53:45.983Z,101249.31
2022-09-02T16:56:13.987Z,101242.22
2022-09-02T16:58:41.760Z,101244.72
2022-09-02T17:01:12.590Z,101240.56
2022-09-02T17:03:40.597Z,101239.56
2022-09-02T17:06:09.557Z,101238.19
2022-09-02T17:08:37.636Z,101232.22
2022-09-02T17:11:13.411Z,101234.78
2022-09-02T17:13:41.198Z,101239.91
2022-09-02T17:16:09.261Z,101238.03
2022-09-02T17:18:38.291Z,101242.78
2022-09-02T17:21:16.791Z,101235.16
2022-09-02T17:23:44.532Z,101241.88
2022-09-02T17:26:12.286Z,101233.47
2022-09-02T17:28:47.215Z,101238.59
2022-09-02T17:31:16.919Z,101232.47
2022-09-02T17:33:46.039Z,101240.06
2022-09-02T17:36:13.951Z,101240.47
2022-09-02T17:38:41.932Z,101249.69
2022-09-02T17:41:27.080Z,101237.03
2022-09-02T17:43:55.294Z,101244.41
2022-09-02T17:46:23.429Z,101249.09
2022-09-02T17:49:15.239Z,101249.81
2022-09-02T17:51:40.939Z,101246.56
2022-09-02T17:54:08.717Z,101241.28
2022-09-02T17:57:10.195Z,101245.75
2022-09-02T17:59:53.155Z,101249.69
2022-09-02T18:02:45.800Z,101250.28
2022-09-02T18:05:18.019Z,101250.91
2022-09-02T18:07:53.275Z,101256.00
2022-09-02T18:10:22.411Z,101249.50
2022-09-02T18:12:50.357Z,101253.38
2022-09-02T18:15:19.455Z,101255.38
2022-09-02T18:17:48.892Z,101258.22
2022-09-02T18:20:25.079Z,101260.44
2022-09-02T18:23:12.697Z,101258.84
2022-09-02T18:25:50.594Z,101255.09
2022-09-02T18:28:28.563Z,101274.13
2022-09-02T18:31:04.542Z,101271.38
2022-09-02T18:33:46.674Z,101268.03
2022-09-02T18:36:25.219Z,101277.31
2022-09-02T18:39:02.127Z,101279.63
2022-09-02T18:41:41.731Z,101273.13
2022-09-02T18:44:19.143Z,101283.56
2022-09-02T18:46:52.834Z,101288.22
2022-09-02T18:49:22.153Z,101285.19
2022-09-02T18:51:54.108Z,101284.78
2022-09-02T18:54:23.824Z,101289.03
2022-09-02T18:56:54.768Z,101286.59
2022-09-02T18:59:28.590Z,101286.41
2022-09-02T19:01:58.324Z,101283.38
2022-09-02T19:04:29.640Z,101289.13
2022-09-02T19:07:18.820Z,101288.91
2022-09-02T19:09:46.321Z,101300.69
2022-09-02T19:12:14.420Z,101301.22
2022-09-02T19:14:42.504Z,101299.41
2022-09-02T19:17:12.404Z,101292.91
2022-09-02T19:19:40.129Z,101299.38
2022-09-02T19:22:11.309Z,101293.94
2022-09-02T19:24:43.531Z,101298.97
2022-09-02T19:27:13.599Z,101298.28
2022-09-02T19:29:43.109Z,101297.44
2022-09-02T19:32:12.447Z,101303.53
2022-09-02T19:34:43.053Z,101295.47
2022-09-02T19:37:12.939Z,101309.63
2022-09-02T19:39:40.835Z,101308.56
2022-09-02T19:42:09.067Z,101308.44
2022-09-02T19:44:36.835Z,101311.53
2022-09-02T19:47:49.696Z,101309.53
2022-09-02T19:49:52.725Z,101312.19
2022-09-02T19:52:21.759Z,101309.94
2022-09-02T19:54:49.477Z,101316.34
2022-09-02T19:57:17.348Z,101311.75
2022-09-02T19:59:45.072Z,101324.84
2022-09-02T20:02:12.809Z,101322.19
2022-09-02T20:04:40.533Z,101328.44
2022-09-02T20:07:08.251Z,101321.34
2022-09-02T20:09:37.296Z,101320.31
2022-09-02T20:12:05.052Z,101318.06
2022-09-02T20:14:34.732Z,101321.47
2022-09-02T20:17:04.955Z,101324.09
2022-09-02T20:19:33.231Z,101324.53
2022-09-02T20:22:01.016Z,101325.13
2022-09-02T20:24:31.735Z,101336.06
2022-09-02T20:27:07.440Z,101333.97
2022-09-02T20:29:58.916Z,101335.09
2022-09-02T20:32:37.136Z,101331.19
2022-09-02T20:35:12.376Z,101334.69
2022-09-02T20:37:50.764Z,101322.06
2022-09-02T20:40:34.606Z,101334.75
2022-09-02T20:43:20.562Z,101335.94
2022-09-02T20:45:52.838Z,101331.09
2022-09-02T20:48:29.119Z,101335.94
2022-09-02T20:51:02.042Z,101332.13
2022-09-02T20:53:39.006Z,101329.91
2022-09-02T20:56:14.028Z,101336.06
2022-09-02T20:58:46.618Z,101328.94
2022-09-02T21:01:18.300Z,101334.53
2022-09-02T21:03:50.416Z,101334.94
2022-09-02T21:06:20.724Z,101335.81
2022-09-02T21:08:57.781Z,101338.09
2022-09-02T21:11:26.793Z,101342.56
2022-09-02T21:14:00.332Z,101347.56
2022-09-02T21:16:37.217Z,101340.19
2022-09-02T21:19:09.472Z,101342.44
2022-09-02T21:21:42.072Z,101347.38
2022-09-02T21:24:12.368Z,101342.38
2022-09-02T21:26:44.469Z,101343.94
2022-09-02T21:29:22.630Z,101338.31
2022-09-02T21:31:54.740Z,101341.38
2022-09-02T21:34:25.859Z,101335.81
2022-09-02T21:36:55.777Z,101338.91
2022-09-02T21:39:26.622Z,101342.09
2022-09-02T21:42:01.877Z,101338.47
2022-09-02T21:44:39.748Z,101341.69
2022-09-02T21:47:17.176Z,101344.50
2022-09-02T21:49:56.567Z,101345.50
2022-09-02T21:52:28.916Z,101330.16
2022-09-02T21:55:03.555Z,101342.56
2022-09-02T21:57:46.214Z,101333.59
2022-09-02T22:00:17.564Z,101334.84
2022-09-02T22:02:57.768Z,101335.28
2022-09-02T22:05:34.915Z,101334.34
2022-09-02T22:08:09.532Z,101328.44
2022-09-02T22:10:40.447Z,101332.03
2022-09-02T22:13:08.374Z,101328.59
2022-09-02T22:15:52.001Z,101330.50
2022-09-02T22:18:24.941Z,101331.59
2022-09-02T22:20:55.719Z,101333.03
2022-09-02T22:23:26.151Z,101327.91
2022-09-02T22:25:56.086Z,101329.94
2022-09-02T22:28:31.403Z,101330.16
2022-09-02T22:31:04.044Z,101329.75
2022-09-02T22:33:34.809Z,101340.03
2022-09-02T22:36:08.731Z,101333.41
2022-09-02T22:38:40.817Z,101333.69
2022-09-02T22:41:19.905Z,101326.19
2022-09-02T22:43:51.739Z,101322.72
2022-09-02T22:46:41.837Z,101318.25
2022-09-02T22:49:30.152Z,101318.47
2022-09-02T22:52:37.692Z,101314.38
2022-09-02T22:55:08.482Z,101324.97
2022-09-02T22:57:41.098Z,101317.84
2022-09-02T23:00:11.822Z,101321.69
2022-09-02T23:02:48.459Z,101318.53
2022-09-02T23:05:45.509Z,101322.41
2022-09-02T23:08:15.188Z,101316.56
2022-09-02T23:10:48.309Z,101322.13
2022-09-02T23:13:21.529Z,101322.31
2022-09-02T23:15:58.869Z,101323.06
2022-09-02T23:18:32.584Z,101317.59
2022-09-02T23:21:04.933Z,101314.34
2022-09-02T23:23:39.091Z,101320.47
2022-09-02T23:26:18.587Z,101302.81
2022-09-02T23:29:04.097Z,101312.47
2022-09-02T23:31:44.708Z,101313.53
2022-09-02T23:34:24.666Z,101307.53
2022-09-02T23:37:00.628Z,101314.91
2022-09-02T23:39:43.970Z,101315.19
2022-09-02T23:42:12.131Z,101305.25
2022-09-02T23:44:39.859Z,101298.19
2022-09-02T23:47:19.296Z,101298.50
2022-09-02T23:49:54.983Z,101299.47
2022-09-02T23:52:30.032Z,101290.78
2022-09-02T23:55:03.665Z,101287.84
2022-09-02T23:57:56.132Z,101290.97
